Time;durP1;ratioP1;P1;durP2;ratioP2;P2;SDS_P1;SDS_P2;PMS_P1;PMS_P2;Temp;Humidity;BMP_temperature;BMP_pressure;BME280_temperature;BME280_humidity;BME280_pressure;Samples;Min_cycle;Max_cycle;Signal;HPM_P1;HPM_P2
2020/12/13 00:00:53;;;;;;;45.45;24.70;;;6.30;99.90;;;;;;5041828;28;20115;-73
2020/12/13 00:03:19;;;;;;;52.92;26.08;;;6.30;99.90;;;;;;5051896;28;20139;-73
2020/12/13 00:05:46;;;;;;;46.88;25.83;;;6.20;99.90;;;;;;5064038;28;20048;-73
2020/12/13 00:08:12;;;;;;;43.47;24.60;;;6.20;99.90;;;;;;5046096;28;20076;-72
2020/12/13 00:10:38;;;;;;;51.05;26.00;;;6.30;99.90;;;;;;5063980;28;20045;-72
2020/12/13 00:13:05;;;;;;;46.63;24.73;;;6.30;99.90;;;;;;5042704;28;20429;-72
2020/12/13 00:15:31;;;;;;;49.30;25.13;;;6.30;99.90;;;;;;5057125;28;20047;-71
2020/12/13 00:17:57;;;;;;;45.33;24.23;;;6.30;99.90;;;;;;5032637;28;20052;-73
2020/12/13 00:20:23;;;;;;;47.78;24.45;;;6.30;99.90;;;;;;5049774;28;20048;-72
2020/12/13 00:22:50;;;;;;;49.58;26.15;;;6.30;99.90;;;;;;5050336;28;20044;-72
2020/12/13 00:25:16;;;;;;;48.70;25.90;;;6.30;99.90;;;;;;5067693;28;20444;-72
2020/12/13 00:27:42;;;;;;;45.42;25.75;;;6.40;99.90;;;;;;5049999;28;20072;-72
2020/12/13 00:30:09;;;;;;;44.63;25.75;;;6.40;99.90;;;;;;5048143;28;20427;-73
2020/12/13 00:32:35;;;;;;;45.25;25.40;;;6.40;99.90;;;;;;5066730;28;20048;-72
2020/12/13 00:35:02;;;;;;;46.13;25.52;;;6.40;99.90;;;;;;5065966;28;20417;-73
2020/12/13 00:37:28;;;;;;;40.72;23.73;;;6.40;99.90;;;;;;5032085;28;20088;-72
2020/12/13 00:39:55;;;;;;;50.30;25.20;;;6.40;99.90;;;;;;5068040;28;20052;-73
2020/12/13 00:42:21;;;;;;;51.42;26.27;;;6.40;99.90;;;;;;5048557;28;20051;-74
2020/12/13 00:44:47;;;;;;;48.55;25.63;;;6.40;99.90;;;;;;5041387;28;20059;-74
2020/12/13 00:47:14;;;;;;;52.05;28.50;;;6.40;99.90;;;;;;5065709;28;20134;-74
2020/12/13 00:49:40;;;;;;;51.03;27.42;;;6.30;99.90;;;;;;5050357;28;20103;-74
2020/12/13 00:52:06;;;;;;;51.13;25.98;;;6.30;99.90;;;;;;5065877;28;20048;-74
2020/12/13 00:54:34;;;;;;;57.08;27.40;;;6.20;99.90;;;;;;5050762;28;20559;-75
2020/12/13 00:57:01;;;;;;;53.75;26.58;;;6.20;99.90;;;;;;5046337;28;20049;-74
2020/12/13 00:59:27;;;;;;;49.47;25.38;;;6.20;99.90;;;;;;5046847;28;20533;-74
2020/12/13 01:01:54;;;;;;;56.20;25.50;;;6.20;99.90;;;;;;5047233;28;20057;-74
2020/12/13 01:04:21;;;;;;;50.45;25.45;;;6.20;99.90;;;;;;5033287;28;20052;-74
2020/12/13 01:06:47;;;;;;;55.38;26.70;;;6.20;99.90;;;;;;5048867;28;20606;-74
2020/12/13 01:09:13;;;;;;;54.60;26.33;;;6.20;99.90;;;;;;5067221;28;20542;-73
2020/12/13 01:11:40;;;;;;;52.15;24.80;;;6.20;99.90;;;;;;5066962;28;20084;-74
2020/12/13 01:14:06;;;;;;;48.13;25.35;;;6.30;99.90;;;;;;5040848;28;20043;-74
2020/12/13 01:16:32;;;;;;;54.03;26.23;;;6.20;99.90;;;;;;5066379;28;20080;-74
2020/12/13 01:19:00;;;;;;;48.40;25.98;;;6.20;99.90;;;;;;5049308;28;20157;-73
2020/12/13 01:21:29;;;;;;;51.63;25.73;;;6.20;99.90;;;;;;5065305;28;20056;-73
2020/12/13 01:23:56;;;;;;;47.08;24.48;;;6.30;99.90;;;;;;5065539;28;20048;-73
2020/12/13 01:26:27;;;;;;;45.03;23.90;;;6.20;99.90;;;;;;5065374;28;20041;-73
2020/12/13 01:28:54;;;;;;;50.15;24.95;;;6.30;99.90;;;;;;5066198;28;20055;-73
2020/12/13 01:31:22;;;;;;;50.75;25.42;;;6.30;99.90;;;;;;5064383;28;20076;-73
2020/12/13 01:33:50;;;;;;;59.67;27.13;;;6.30;99.90;;;;;;5067158;28;20134;-73
2020/12/13 01:36:22;;;;;;;47.78;24.50;;;6.40;99.90;;;;;;5081129;28;20795;-72
2020/12/13 01:38:50;;;;;;;48.70;26.83;;;6.30;99.90;;;;;;5064795;28;20138;-73
2020/12/13 01:41:17;;;;;;;51.88;26.70;;;6.30;99.90;;;;;;5064992;28;20044;-73
2020/12/13 01:44:04;;;;;;;50.88;25.48;;;6.30;99.90;;;;;;5040121;28;20052;-73
2020/12/13 01:46:31;;;;;;;44.58;25.00;;;6.30;99.90;;;;;;5030868;28;20120;-73
2020/12/13 01:49:03;;;;;;;57.63;26.77;;;6.20;99.90;;;;;;5048693;28;20102;-72
2020/12/13 01:54:26;;;;;;;54.13;26.60;;;6.30;99.90;;;;;;5065300;28;20139;-72
2020/12/13 01:56:55;;;;;;;54.33;25.67;;;6.20;99.90;;;;;;5048247;28;20503;-72
2020/12/13 01:59:24;;;;;;;48.60;25.98;;;6.30;99.90;;;;;;5044789;28;20144;-72
2020/12/13 02:02:01;;;;;;;49.20;24.13;;;6.30;99.90;;;;;;5045160;28;20057;-73
2020/12/13 02:04:32;;;;;;;62.80;26.73;;;6.30;99.90;;;;;;5046333;28;20206;-73
2020/12/13 02:07:01;;;;;;;54.83;26.27;;;6.30;99.90;;;;;;5060775;28;20052;-72
2020/12/13 02:09:28;;;;;;;50.72;26.85;;;6.30;99.90;;;;;;5061890;28;20048;-73
2020/12/13 02:11:54;;;;;;;57.90;26.23;;;6.20;99.90;;;;;;5047582;28;20040;-73
2020/12/13 02:14:21;;;;;;;53.10;25.20;;;6.30;99.90;;;;;;5023219;28;20441;-73
2020/12/13 02:16:48;;;;;;;49.60;23.23;;;6.30;99.90;;;;;;5063993;28;20049;-73
2020/12/13 02:19:16;;;;;;;53.40;25.20;;;6.20;99.90;;;;;;5047997;28;20555;-72
2020/12/13 02:21:47;;;;;;;47.42;24.75;;;6.20;99.90;;;;;;5030097;28;20064;-73
2020/12/13 02:24:13;;;;;;;52.95;25.35;;;6.20;99.90;;;;;;5047661;28;20145;-73
2020/12/13 02:26:44;;;;;;;52.75;23.85;;;6.20;99.90;;;;;;5063687;28;20045;-73
2020/12/13 02:29:11;;;;;;;51.70;24.30;;;6.20;99.90;;;;;;5046143;28;20055;-73
2020/12/13 02:31:38;;;;;;;47.58;22.90;;;6.30;99.90;;;;;;5043756;28;20310;-72
2020/12/13 02:34:05;;;;;;;52.50;22.98;;;6.30;99.90;;;;;;5043728;28;20132;-72
2020/12/13 02:36:32;;;;;;;53.10;25.55;;;6.20;99.90;;;;;;5033663;28;20566;-73
2020/12/13 02:38:59;;;;;;;51.22;25.85;;;6.20;99.90;;;;;;5063607;28;20136;-73
2020/12/13 02:41:26;;;;;;;54.78;25.73;;;6.20;99.90;;;;;;5070713;28;20080;-73
2020/12/13 02:43:52;;;;;;;53.97;25.52;;;6.20;99.90;;;;;;5012430;28;20135;-72
2020/12/13 02:46:19;;;;;;;49.75;26.17;;;6.20;99.90;;;;;;5041627;28;20106;-73
2020/12/13 02:48:46;;;;;;;58.35;25.92;;;6.30;99.90;;;;;;5057030;28;20048;-73
2020/12/13 02:51:12;;;;;;;52.28;26.38;;;6.40;99.90;;;;;;5063049;28;20037;-72
2020/12/13 02:53:39;;;;;;;53.72;25.02;;;6.30;99.90;;;;;;5063454;28;20063;-72
2020/12/13 02:56:05;;;;;;;53.25;26.40;;;6.20;99.90;;;;;;5053749;28;20437;-73
2020/12/13 02:58:31;;;;;;;54.72;25.23;;;6.30;99.90;;;;;;5043491;28;20075;-72
2020/12/13 03:00:57;;;;;;;54.33;27.67;;;6.40;99.90;;;;;;5045349;28;20044;-73
2020/12/13 03:03:25;;;;;;;59.67;25.90;;;6.50;99.90;;;;;;5063575;28;20058;-73
2020/12/13 03:05:51;;;;;;;54.28;26.98;;;6.50;99.90;;;;;;5054365;28;20647;-74
2020/12/13 03:08:18;;;;;;;47.72;25.83;;;6.50;99.90;;;;;;5063198;28;20509;-74
2020/12/13 03:10:44;;;;;;;57.45;25.55;;;6.40;99.90;;;;;;5063062;28;20095;-73
2020/12/13 03:13:11;;;;;;;52.38;27.60;;;6.40;99.90;;;;;;5058932;28;20474;-73
2020/12/13 03:15:37;;;;;;;52.20;24.95;;;6.40;99.90;;;;;;5042443;28;20509;-72
2020/12/13 03:18:03;;;;;;;57.45;26.52;;;6.30;99.90;;;;;;5062841;28;20593;-71
2020/12/13 03:20:30;;;;;;;54.88;25.95;;;6.30;99.90;;;;;;5062951;28;20048;-73
2020/12/13 03:22:56;;;;;;;52.15;25.95;;;6.30;99.90;;;;;;5045765;28;20055;-71
2020/12/13 03:25:22;;;;;;;55.40;26.23;;;6.40;99.90;;;;;;5045510;28;20049;-71
2020/12/13 03:27:51;;;;;;;57.33;25.83;;;6.30;99.90;;;;;;5027434;28;20055;-71
2020/12/13 03:30:17;;;;;;;58.95;26.98;;;6.40;99.90;;;;;;5062030;28;20611;-71
2020/12/13 03:32:43;;;;;;;57.55;26.08;;;6.40;99.90;;;;;;5046505;28;20106;-71
2020/12/13 03:35:10;;;;;;;56.45;25.98;;;6.40;99.90;;;;;;5045671;28;20135;-71
2020/12/13 03:37:36;;;;;;;60.25;28.05;;;6.40;99.90;;;;;;5046003;28;20183;-71
2020/12/13 03:40:03;;;;;;;52.40;27.25;;;6.40;99.90;;;;;;5064590;28;20685;-72
2020/12/13 03:42:29;;;;;;;55.30;26.83;;;6.40;99.90;;;;;;5062270;28;20099;-75
2020/12/13 03:44:55;;;;;;;54.72;26.10;;;6.40;99.90;;;;;;5053767;28;20451;-72
2020/12/13 03:47:21;;;;;;;58.67;28.05;;;6.40;99.90;;;;;;5042337;28;20128;-72
2020/12/13 03:49:48;;;;;;;61.33;29.20;;;6.40;99.90;;;;;;5042904;28;20072;-72
2020/12/13 03:52:14;;;;;;;57.08;27.45;;;6.40;99.90;;;;;;5060791;28;20147;-72
2020/12/13 03:54:41;;;;;;;59.53;28.48;;;6.60;99.90;;;;;;5046186;28;20181;-72
2020/12/13 03:57:07;;;;;;;61.45;29.67;;;6.60;99.90;;;;;;5032975;28;20127;-73
2020/12/13 03:59:35;;;;;;;63.38;31.15;;;6.60;99.90;;;;;;5050774;28;20524;-72
2020/12/13 04:02:04;;;;;;;59.85;29.60;;;6.60;99.90;;;;;;5049645;28;20037;-72
2020/12/13 04:04:30;;;;;;;62.17;29.73;;;6.60;99.90;;;;;;5068129;28;20059;-72
2020/12/13 04:06:57;;;;;;;63.50;30.05;;;6.60;99.90;;;;;;5067205;28;20124;-72
2020/12/13 04:09:24;;;;;;;64.20;31.10;;;6.60;99.90;;;;;;5066337;28;20044;-72
2020/12/13 04:11:51;;;;;;;67.60;29.55;;;6.60;99.90;;;;;;5068044;28;20044;-72
2020/12/13 04:14:18;;;;;;;62.72;31.05;;;6.70;99.90;;;;;;5065472;28;20043;-73
2020/12/13 04:16:45;;;;;;;61.20;30.42;;;6.70;99.90;;;;;;5047620;28;20045;-72
2020/12/13 04:19:11;;;;;;;66.63;31.23;;;6.70;99.90;;;;;;5042275;28;20048;-71
2020/12/13 04:21:38;;;;;;;67.28;30.38;;;6.70;99.90;;;;;;5064233;28;20318;-72
2020/12/13 04:24:04;;;;;;;61.08;29.85;;;6.70;99.90;;;;;;5048351;28;20048;-72
2020/12/13 04:26:32;;;;;;;64.05;31.77;;;6.70;99.90;;;;;;5041129;28;20045;-72
2020/12/13 04:28:58;;;;;;;71.00;32.35;;;6.80;99.90;;;;;;5049905;28;20053;-72
2020/12/13 04:31:25;;;;;;;71.45;35.13;;;6.80;99.90;;;;;;5065569;28;20056;-73
2020/12/13 04:33:51;;;;;;;71.78;32.10;;;6.90;99.90;;;;;;5066076;28;20116;-73
2020/12/13 04:36:17;;;;;;;69.55;34.42;;;6.90;99.90;;;;;;5065627;28;20067;-72
2020/12/13 04:38:44;;;;;;;74.55;33.25;;;6.90;99.90;;;;;;5065020;28;20041;-73
2020/12/13 04:41:11;;;;;;;74.80;34.55;;;7.00;99.90;;;;;;5066012;28;20058;-74
2020/12/13 04:43:39;;;;;;;74.35;36.88;;;7.00;99.90;;;;;;5049970;28;20564;-73
2020/12/13 04:46:07;;;;;;;70.30;34.47;;;7.00;99.90;;;;;;5032815;28;20139;-73
2020/12/13 04:48:34;;;;;;;74.25;35.03;;;7.10;99.90;;;;;;5066114;28;20049;-73
2020/12/13 04:51:00;;;;;;;72.82;35.55;;;7.10;99.90;;;;;;5031472;28;20037;-73
2020/12/13 04:53:28;;;;;;;73.80;35.50;;;7.10;99.90;;;;;;5067680;28;20056;-73
2020/12/13 04:55:57;;;;;;;83.60;35.08;;;7.00;99.90;;;;;;5055555;28;20045;-72
2020/12/13 04:58:27;;;;;;;80.35;37.15;;;7.10;99.90;;;;;;5066313;28;20057;-72
2020/12/13 05:00:59;;;;;;;71.53;35.08;;;7.20;99.90;;;;;;5066208;28;20113;-73
2020/12/13 05:03:26;;;;;;;74.15;33.63;;;7.20;99.90;;;;;;5064713;28;20056;-72
2020/12/13 05:06:01;;;;;;;82.13;37.22;;;7.20;99.90;;;;;;5065581;28;20113;-73
2020/12/13 05:08:28;;;;;;;78.38;34.17;;;7.10;99.90;;;;;;5066104;28;20063;-72
2020/12/13 05:10:55;;;;;;;67.03;33.58;;;7.10;99.90;;;;;;5065367;28;20140;-72
2020/12/13 05:13:21;;;;;;;74.70;35.20;;;7.10;99.90;;;;;;5066474;28;20064;-73
2020/12/13 05:15:48;;;;;;;73.90;34.25;;;7.10;99.90;;;;;;5065524;28;20049;-73
2020/12/13 05:18:14;;;;;;;70.80;33.28;;;7.10;99.90;;;;;;5032458;28;20155;-73
2020/12/13 05:20:43;;;;;;;75.57;32.97;;;7.00;99.90;;;;;;5064905;28;20059;-73
2020/12/13 05:23:10;;;;;;;74.65;33.35;;;7.00;99.90;;;;;;5065765;28;20605;-73
2020/12/13 05:25:38;;;;;;;87.90;34.50;;;7.00;99.90;;;;;;5031788;28;20706;-73
2020/12/13 05:28:09;;;;;;;84.95;36.78;;;7.00;99.90;;;;;;5053959;28;20049;-73
2020/12/13 05:30:45;;;;;;;73.63;34.15;;;7.00;99.90;;;;;;5047584;28;20049;-73
2020/12/13 05:33:20;;;;;;;77.47;33.42;;;7.00;99.90;;;;;;5049269;28;20051;-73
2020/12/13 05:35:47;;;;;;;76.13;34.83;;;7.00;99.90;;;;;;5065347;28;20088;-74
2020/12/13 05:38:15;;;;;;;92.38;35.90;;;7.10;99.90;;;;;;5065884;28;20052;-73
2020/12/13 05:40:43;;;;;;;89.38;36.00;;;7.10;99.90;;;;;;5062325;28;20041;-73
2020/12/13 05:43:20;;;;;;;78.78;35.40;;;7.10;99.90;;;;;;5066747;28;20071;-73
2020/12/13 05:48:47;;;;;;;86.82;37.75;;;7.10;99.90;;;;;;5048335;28;20106;-73
2020/12/13 05:51:24;;;;;;;83.07;36.70;;;7.10;99.90;;;;;;5047667;28;20503;-72
2020/12/13 05:53:56;;;;;;;94.22;38.45;;;7.10;99.90;;;;;;5066377;28;20068;-73
2020/12/13 05:56:23;;;;;;;85.00;38.45;;;7.10;99.90;;;;;;5038990;28;20045;-72
2020/12/13 05:58:51;;;;;;;104.82;41.55;;;7.10;99.90;;;;;;5049556;28;20413;-72
2020/12/13 06:01:23;;;;;;;95.78;39.40;;;7.10;99.90;;;;;;5063311;28;20155;-73
2020/12/13 06:03:52;;;;;;;100.78;39.80;;;7.10;99.90;;;;;;5048417;28;20151;-73
2020/12/13 06:06:24;;;;;;;108.05;43.15;;;7.10;99.90;;;;;;5030773;28;20048;-72
2020/12/13 06:09:09;;;;;;;101.05;41.03;;;7.20;99.90;;;;;;5028231;28;20063;-73
2020/12/13 06:11:36;;;;;;;96.82;40.50;;;7.10;99.90;;;;;;5044235;28;20076;-73
2020/12/13 06:14:18;;;;;;;107.90;42.75;;;7.10;99.90;;;;;;5028164;28;20132;-73
2020/12/13 06:16:45;;;;;;;103.70;40.78;;;7.20;99.90;;;;;;5044311;28;20110;-73
2020/12/13 06:19:15;;;;;;;107.80;41.78;;;7.20;99.90;;;;;;5047487;28;20044;-72
2020/12/13 06:21:44;;;;;;;100.30;42.90;;;7.20;99.90;;;;;;5046583;28;20154;-73
2020/12/13 06:24:11;;;;;;;100.53;43.45;;;7.20;99.90;;;;;;5047491;28;20113;-73
2020/12/13 06:26:40;;;;;;;115.75;42.80;;;7.10;99.90;;;;;;5055005;28;20101;-72
2020/12/13 06:29:06;;;;;;;117.90;45.58;;;7.20;99.90;;;;;;5065143;28;20056;-73
2020/12/13 06:31:35;;;;;;;115.40;45.78;;;7.20;99.90;;;;;;5063358;28;20056;-73
2020/12/13 06:34:03;;;;;;;127.55;45.63;;;7.20;99.90;;;;;;5063595;28;20129;-73
2020/12/13 06:36:32;;;;;;;116.25;44.78;;;7.20;99.90;;;;;;5046753;28;20139;-72
2020/12/13 06:38:59;;;;;;;117.45;45.75;;;7.20;99.90;;;;;;5064191;28;20129;-72
2020/12/13 06:41:29;;;;;;;115.18;42.92;;;7.20;99.90;;;;;;5063975;28;20139;-73
2020/12/13 06:44:06;;;;;;;135.15;47.85;;;7.20;99.90;;;;;;5064559;28;20696;-73
2020/12/13 06:46:38;;;;;;;148.98;51.92;;;7.30;99.90;;;;;;5063123;28;20045;-73
2020/12/13 06:49:05;;;;;;;182.57;59.70;;;7.30;99.90;;;;;;5046476;28;20040;-73
2020/12/13 06:51:34;;;;;;;156.93;53.03;;;7.40;99.90;;;;;;5035797;28;20036;-74
2020/12/13 06:54:23;;;;;;;150.48;48.75;;;7.40;99.90;;;;;;5061086;28;20059;-73
2020/12/13 06:56:49;;;;;;;170.10;54.38;;;7.50;99.90;;;;;;5056608;28;20166;-73
2020/12/13 06:59:19;;;;;;;158.48;50.95;;;7.50;99.90;;;;;;5065855;28;20051;-73
2020/12/13 07:01:47;;;;;;;152.88;51.25;;;7.40;99.90;;;;;;5062369;28;20136;-73
2020/12/13 07:04:29;;;;;;;157.50;50.97;;;7.40;99.90;;;;;;5047185;28;20052;-73
2020/12/13 07:09:25;;;;;;;157.70;50.25;;;7.40;99.90;;;;;;5062407;28;20565;-75
2020/12/13 07:11:53;;;;;;;173.73;53.08;;;7.50;99.90;;;;;;5046351;28;20052;-73
2020/12/13 07:14:22;;;;;;;169.80;53.95;;;7.40;99.90;;;;;;5046632;28;20058;-74
2020/12/13 07:17:00;;;;;;;173.63;50.72;;;7.50;99.90;;;;;;5064283;28;20506;-75
2020/12/13 07:19:30;;;;;;;178.77;51.15;;;7.50;99.90;;;;;;5062827;28;20040;-75
2020/12/13 07:22:10;;;;;;;179.77;52.90;;;7.50;99.90;;;;;;5054316;28;20097;-73
2020/12/13 07:24:42;;;;;;;134.15;44.58;;;7.40;99.90;;;;;;5046132;28;20052;-74
2020/12/13 07:27:10;;;;;;;132.48;42.58;;;7.30;99.90;;;;;;5053732;28;20102;-75
2020/12/13 07:29:36;;;;;;;117.65;41.25;;;7.30;99.90;;;;;;5061503;28;20136;-74
2020/12/13 07:32:04;;;;;;;139.07;42.72;;;7.30;99.90;;;;;;5041685;28;20224;-73
2020/12/13 07:34:31;;;;;;;110.43;37.03;;;7.20;99.90;;;;;;5059665;28;20092;-73
2020/12/13 07:36:59;;;;;;;84.47;31.48;;;7.20;99.90;;;;;;5041379;28;20335;-74
2020/12/13 07:39:28;;;;;;;105.50;33.97;;;7.20;99.90;;;;;;5046066;28;20052;-74
2020/12/13 07:41:54;;;;;;;81.53;29.70;;;7.30;99.90;;;;;;5061458;28;20524;-73
2020/12/13 07:44:30;;;;;;;80.63;26.98;;;7.20;99.90;;;;;;5063195;28;20060;-73
2020/12/13 07:46:56;;;;;;;78.95;26.63;;;7.10;99.90;;;;;;5045029;28;20528;-74
2020/12/13 07:49:22;;;;;;;81.30;25.38;;;7.10;99.90;;;;;;5045442;28;20118;-74
2020/12/13 07:51:51;;;;;;;95.45;30.13;;;7.10;99.90;;;;;;5036960;28;20049;-74
2020/12/13 07:54:28;;;;;;;82.35;29.70;;;7.10;99.90;;;;;;5063423;28;20110;-74
2020/12/13 07:56:55;;;;;;;90.80;32.63;;;7.20;99.90;;;;;;5049282;28;20067;-74
2020/12/13 07:59:27;;;;;;;90.65;30.95;;;7.20;99.90;;;;;;5027446;28;20129;-75
2020/12/13 08:01:55;;;;;;;94.60;30.75;;;7.10;99.90;;;;;;5062357;28;20135;-74
2020/12/13 08:04:31;;;;;;;89.43;34.13;;;7.10;99.90;;;;;;5063199;28;20398;-74
2020/12/13 08:06:59;;;;;;;105.35;35.42;;;7.10;99.90;;;;;;5061800;28;20054;-73
2020/12/13 08:09:26;;;;;;;113.13;36.63;;;7.10;99.90;;;;;;5062486;28;20722;-74
2020/12/13 08:11:53;;;;;;;134.52;37.03;;;7.10;99.90;;;;;;5045814;28;20041;-74
2020/12/13 08:14:25;;;;;;;123.88;38.53;;;7.10;99.90;;;;;;5045993;28;20151;-74
2020/12/13 08:16:52;;;;;;;134.85;42.10;;;7.20;99.90;;;;;;5062262;28;20041;-74
2020/12/13 08:19:40;;;;;;;126.57;40.97;;;7.20;99.90;;;;;;5046017;28;20106;-75
2020/12/13 08:22:22;;;;;;;130.38;41.47;;;7.20;99.90;;;;;;5061811;28;20148;-73
2020/12/13 08:25:07;;;;;;;134.95;41.83;;;7.20;99.90;;;;;;5061827;28;20477;-74
2020/12/13 08:27:37;;;;;;;156.10;44.03;;;7.20;99.90;;;;;;5057336;28;20166;-74
2020/12/13 08:30:05;;;;;;;142.60;42.65;;;7.20;99.90;;;;;;5061674;28;20048;-73
2020/12/13 08:32:35;;;;;;;115.18;38.47;;;7.10;99.90;;;;;;5062658;28;20410;-73
2020/12/13 08:35:15;;;;;;;127.88;41.15;;;7.20;99.90;;;;;;5063394;28;20382;-72
2020/12/13 08:37:58;;;;;;;126.00;40.63;;;7.20;99.90;;;;;;5053785;28;20044;-73
2020/12/13 08:40:39;;;;;;;127.35;41.50;;;7.20;99.90;;;;;;5048643;28;20655;-74
2020/12/13 08:43:07;;;;;;;133.65;38.08;;;7.20;99.90;;;;;;5061492;28;20128;-72
2020/12/13 08:45:34;;;;;;;137.35;42.13;;;7.20;99.90;;;;;;5045292;28;20380;-72
2020/12/13 08:48:08;;;;;;;139.30;42.60;;;7.20;99.90;;;;;;5065752;28;20084;-72
2020/12/13 08:50:40;;;;;;;152.68;46.22;;;7.30;99.90;;;;;;5065667;28;20152;-72
2020/12/13 08:53:24;;;;;;;176.02;47.60;;;7.30;99.90;;;;;;5065268;28;20117;-73
2020/12/13 08:56:06;;;;;;;148.55;47.85;;;7.20;99.90;;;;;;5061485;28;20040;-73
2020/12/13 08:58:47;;;;;;;157.85;46.70;;;7.30;99.90;;;;;;5029393;28;20587;-73
2020/12/13 09:01:13;;;;;;;148.90;51.25;;;7.30;99.90;;;;;;5044495;28;20053;-73
2020/12/13 09:03:40;;;;;;;139.57;49.33;;;7.40;99.90;;;;;;5056438;28;20052;-73
2020/12/13 09:06:07;;;;;;;138.95;46.95;;;7.40;99.90;;;;;;5056360;28;20098;-73
2020/12/13 09:08:33;;;;;;;129.85;48.20;;;7.40;99.90;;;;;;5065841;28;20524;-73
2020/12/13 09:11:04;;;;;;;128.07;46.08;;;7.40;99.90;;;;;;5048551;28;20045;-73
2020/12/13 09:13:31;;;;;;;138.00;47.13;;;7.40;99.90;;;;;;5048254;28;20433;-72
2020/12/13 09:15:58;;;;;;;153.38;50.80;;;7.40;99.90;;;;;;5064317;28;20048;-73
2020/12/13 09:18:25;;;;;;;138.23;46.60;;;7.50;99.90;;;;;;5057633;28;20063;-72
2020/12/13 09:20:59;;;;;;;138.30;49.10;;;7.50;99.90;;;;;;5054002;28;20208;-72
2020/12/13 09:23:25;;;;;;;131.95;48.58;;;7.50;99.90;;;;;;5045350;28;20052;-72
2020/12/13 09:25:54;;;;;;;144.88;50.47;;;7.50;99.90;;;;;;5056227;28;20106;-73
2020/12/13 09:28:20;;;;;;;151.98;51.58;;;7.60;99.90;;;;;;5059123;28;20422;-74
2020/12/13 09:30:47;;;;;;;159.48;51.58;;;7.70;99.90;;;;;;5046646;28;20045;-72
2020/12/13 09:33:15;;;;;;;148.63;51.25;;;7.70;99.90;;;;;;5039449;28;20052;-72
2020/12/13 09:35:42;;;;;;;145.85;47.67;;;7.60;99.90;;;;;;5031310;28;20048;-73
2020/12/13 09:38:09;;;;;;;157.02;46.78;;;7.70;99.90;;;;;;5063456;28;20561;-72
2020/12/13 09:40:37;;;;;;;183.23;50.30;;;7.70;99.90;;;;;;5063822;28;20518;-72
2020/12/13 09:43:04;;;;;;;191.75;50.72;;;7.60;99.90;;;;;;5064924;28;20052;-73
2020/12/13 09:45:31;;;;;;;196.20;54.05;;;7.60;99.90;;;;;;5047283;28;20162;-74
2020/12/13 09:47:57;;;;;;;211.95;57.38;;;7.60;99.90;;;;;;5045494;28;20041;-73
2020/12/13 09:50:27;;;;;;;216.30;56.80;;;7.60;99.90;;;;;;5049146;28;20716;-73
2020/12/13 09:52:53;;;;;;;240.60;58.85;;;7.50;99.90;;;;;;5045044;28;20052;-73
2020/12/13 09:55:20;;;;;;;222.80;57.65;;;7.60;99.90;;;;;;5061373;28;20060;-73
2020/12/13 09:57:47;;;;;;;185.02;51.83;;;7.60;99.90;;;;;;5047919;28;20388;-73
2020/12/13 10:00:13;;;;;;;197.48;51.08;;;7.50;99.90;;;;;;5064493;28;20068;-73
2020/12/13 10:02:41;;;;;;;242.15;55.88;;;7.60;99.90;;;;;;5065987;28;20060;-72
2020/12/13 10:05:17;;;;;;;276.45;58.53;;;7.60;99.90;;;;;;5065252;28;20036;-73
2020/12/13 10:10:12;;;;;;;224.27;54.97;;;7.50;99.90;;;;;;5033379;28;20037;-73
2020/12/13 10:12:39;;;;;;;229.60;58.60;;;7.40;99.90;;;;;;5064280;28;20489;-73
2020/12/13 10:15:05;;;;;;;217.45;59.60;;;7.40;99.90;;;;;;5061754;28;20135;-73
2020/12/13 10:17:32;;;;;;;193.98;52.90;;;7.40;99.90;;;;;;5062143;28;20129;-73
2020/12/13 10:19:58;;;;;;;198.75;52.97;;;7.40;99.90;;;;;;5030075;28;20051;-73
2020/12/13 10:22:24;;;;;;;151.02;47.33;;;7.40;99.90;;;;;;5062980;28;20143;-73
2020/12/13 10:24:51;;;;;;;160.52;48.28;;;7.50;99.90;;;;;;5057025;28;20470;-73
2020/12/13 10:27:18;;;;;;;157.27;47.88;;;7.50;99.90;;;;;;5060788;28;20044;-73
2020/12/13 10:29:44;;;;;;;138.35;46.42;;;7.60;99.90;;;;;;5061056;28;20056;-72
2020/12/13 10:32:10;;;;;;;126.30;42.28;;;7.60;99.90;;;;;;5045983;28;20048;-72
2020/12/13 10:34:37;;;;;;;127.40;44.95;;;7.60;99.90;;;;;;5043382;28;20144;-72
2020/12/13 10:37:03;;;;;;;115.90;41.45;;;7.60;99.90;;;;;;5041942;28;20443;-73
2020/12/13 10:39:29;;;;;;;127.85;43.50;;;7.60;99.90;;;;;;5059409;28;20135;-72
2020/12/13 10:41:56;;;;;;;140.30;46.67;;;7.60;99.90;;;;;;5062800;28;20149;-72
2020/12/13 10:44:22;;;;;;;120.22;43.58;;;7.70;99.90;;;;;;5064266;28;20045;-72
2020/12/13 10:46:48;;;;;;;112.90;42.05;;;7.80;99.90;;;;;;5029390;28;20055;-72
2020/12/13 10:49:15;;;;;;;122.95;41.47;;;7.80;99.90;;;;;;5062275;28;20033;-72
2020/12/13 10:51:42;;;;;;;117.85;40.00;;;7.70;99.90;;;;;;5045532;28;20082;-74
2020/12/13 10:54:09;;;;;;;119.47;39.90;;;7.70;99.90;;;;;;5062039;28;20189;-73
2020/12/13 10:56:36;;;;;;;120.00;42.95;;;7.70;99.90;;;;;;5050823;28;20048;-73
2020/12/13 10:59:02;;;;;;;126.38;41.38;;;7.60;99.90;;;;;;5030774;28;20726;-71
2020/12/13 11:01:29;;;;;;;121.45;41.25;;;7.70;99.90;;;;;;5059985;28;20460;-74
2020/12/13 11:03:55;;;;;;;113.30;40.78;;;7.60;99.90;;;;;;5062046;28;20048;-72
2020/12/13 11:06:22;;;;;;;122.45;42.75;;;7.60;99.90;;;;;;5061102;28;20063;-73
2020/12/13 11:08:48;;;;;;;108.82;39.83;;;7.60;99.90;;;;;;5051187;28;20055;-73
2020/12/13 11:11:14;;;;;;;116.93;42.85;;;7.60;99.90;;;;;;5041802;28;20421;-73
2020/12/13 11:13:42;;;;;;;125.32;43.50;;;7.60;99.90;;;;;;5043352;28;20071;-74
2020/12/13 11:16:09;;;;;;;115.80;41.65;;;7.70;99.90;;;;;;5045096;28;20044;-72
2020/12/13 11:18:36;;;;;;;98.22;38.00;;;7.60;99.90;;;;;;5062357;28;20675;-72
2020/12/13 11:21:03;;;;;;;110.60;38.67;;;7.60;99.90;;;;;;5046593;28;20143;-72
2020/12/13 11:23:30;;;;;;;111.03;40.78;;;7.60;99.90;;;;;;5028052;28;20118;-73
2020/12/13 11:25:56;;;;;;;108.03;38.67;;;7.60;99.90;;;;;;5058983;28;20053;-72
2020/12/13 11:28:22;;;;;;;91.45;37.55;;;7.60;99.90;;;;;;5053564;28;20051;-72
2020/12/13 11:30:49;;;;;;;99.38;36.05;;;7.60;99.90;;;;;;5045115;28;20051;-73
2020/12/13 11:33:15;;;;;;;98.75;37.47;;;7.70;99.90;;;;;;5062833;28;20052;-72
2020/12/13 11:35:42;;;;;;;88.70;34.38;;;7.60;99.90;;;;;;5062334;28;20135;-72
2020/12/13 11:38:09;;;;;;;85.65;35.80;;;7.70;99.90;;;;;;5044378;28;20041;-72
2020/12/13 11:40:36;;;;;;;90.10;35.95;;;7.60;99.90;;;;;;5045134;28;20064;-74
2020/12/13 11:43:02;;;;;;;76.32;32.30;;;7.70;99.90;;;;;;5062788;28;20123;-72
2020/12/13 11:45:29;;;;;;;90.30;36.38;;;7.80;99.90;;;;;;5061956;28;20148;-72
2020/12/13 11:47:55;;;;;;;83.20;35.40;;;7.70;99.90;;;;;;5063390;28;20560;-71
2020/12/13 11:50:21;;;;;;;87.15;36.75;;;7.80;99.90;;;;;;5045465;28;20037;-72
2020/12/13 11:52:47;;;;;;;65.85;30.40;;;7.70;99.90;;;;;;5063480;28;20546;-72
2020/12/13 11:55:14;;;;;;;79.38;35.08;;;7.80;99.90;;;;;;5061320;28;20442;-73
2020/12/13 11:57:41;;;;;;;76.60;31.70;;;7.70;99.90;;;;;;5040499;28;20645;-73
2020/12/13 12:00:16;;;;;;;78.32;34.08;;;7.60;99.90;;;;;;5046531;28;20163;-74
2020/12/13 12:02:47;;;;;;;72.65;31.27;;;7.70;99.90;;;;;;5046622;28;20054;-73
2020/12/13 12:05:14;;;;;;;75.75;31.77;;;7.60;99.90;;;;;;5060732;28;20036;-73
2020/12/13 12:07:41;;;;;;;77.38;31.20;;;7.70;99.90;;;;;;5068158;28;20106;-73
2020/12/13 12:10:07;;;;;;;72.32;30.15;;;7.80;99.90;;;;;;5078369;28;20048;-73
2020/12/13 12:12:33;;;;;;;81.55;33.17;;;7.80;99.90;;;;;;5064409;28;20048;-73
2020/12/13 12:15:00;;;;;;;71.78;32.10;;;7.90;99.90;;;;;;5053022;28;20058;-74
2020/12/13 12:17:26;;;;;;;69.50;30.65;;;8.00;99.90;;;;;;5060138;28;20071;-73
2020/12/13 12:19:52;;;;;;;73.25;30.08;;;7.90;99.90;;;;;;5059223;28;20110;-73
2020/12/13 12:22:19;;;;;;;69.63;28.60;;;7.90;99.90;;;;;;5065848;28;20793;-74
2020/12/13 12:24:45;;;;;;;43.40;19.85;;;7.80;99.90;;;;;;5048577;28;20132;-75
2020/12/13 12:27:11;;;;;;;62.25;25.42;;;7.60;99.90;;;;;;5065148;28;20053;-75
2020/12/13 12:29:38;;;;;;;54.20;25.35;;;7.60;99.90;;;;;;5065629;28;20281;-76
2020/12/13 12:32:04;;;;;;;58.33;25.52;;;7.50;99.90;;;;;;5066412;28;20564;-76
2020/12/13 12:34:31;;;;;;;52.25;24.75;;;7.50;99.90;;;;;;5049315;28;20056;-75
2020/12/13 12:36:57;;;;;;;55.17;24.52;;;7.50;99.90;;;;;;5029638;28;20041;-75
2020/12/13 12:39:23;;;;;;;48.53;25.25;;;7.50;99.90;;;;;;5049230;28;20048;-74
2020/12/13 12:41:50;;;;;;;44.88;23.10;;;7.40;99.90;;;;;;5048335;28;20461;-74
2020/12/13 12:44:16;;;;;;;55.08;26.33;;;7.30;99.90;;;;;;5065221;28;20045;-74
2020/12/13 12:46:42;;;;;;;53.80;25.55;;;7.30;99.90;;;;;;5047973;28;20516;-75
2020/12/13 12:49:09;;;;;;;57.13;24.23;;;7.30;99.90;;;;;;5065241;28;20048;-76